Terminal Aerodrome Forecast
Issued by NWS

Home | Current Version | Previous Version | Text Only | Print | Product List | Glossary On
Versions: 1 2 3 4 5 6 7 8 9 10 11 12 13 14 15 16 17 18 19 20 21 22 23 24 25 26 27 28
000
FTUS41 KBOX 011739
TAFFMH
TAF
KFMH 011739Z 0118/0218 20008KT P6SM OVC050
     FM012100 20008KT 2SM -SN OVC020
     FM012300 19007KT 1/2SM SN OVC008
     FM020600 22005KT 2SM -SNRA OVC008
     FM021100 27006KT P6SM OVC040
     FM021600 29015G22KT P6SM SCT050=

USA.gov is the U.S. government's official web portal to all federal, state and local government web resources and services.